createdAt,value
2024-02-16T00:02:04.619Z,67.48
2024-02-16T00:04:32.277Z,68.48
2024-02-16T00:06:59.458Z,68.21
2024-02-16T00:09:26.464Z,67.35
2024-02-16T00:11:54.016Z,67.52
2024-02-16T00:14:21.375Z,68.21
2024-02-16T00:16:49.081Z,68.67
2024-02-16T00:19:16.345Z,68.26
2024-02-16T00:21:43.865Z,68.10
2024-02-16T00:24:11.217Z,68.35
2024-02-16T00:26:40.906Z,68.95
2024-02-16T00:29:08.215Z,68.35
2024-02-16T00:31:35.247Z,68.96
2024-02-16T00:34:02.320Z,67.71
2024-02-16T00:36:31.692Z,69.00
2024-02-16T00:38:59.648Z,68.13
2024-02-16T00:41:27.293Z,68.38
2024-02-16T00:43:54.617Z,67.81
2024-02-16T00:46:24.300Z,67.88
2024-02-16T00:48:52.925Z,68.28
2024-02-16T00:51:20.182Z,68.67
2024-02-16T00:53:47.709Z,68.47
2024-02-16T00:56:14.666Z,68.35
2024-02-16T00:58:44.007Z,68.00
2024-02-16T01:01:13.528Z,67.00
2024-02-16T01:03:41.077Z,66.89
2024-02-16T01:06:10.364Z,67.61
2024-02-16T01:08:37.416Z,67.17
2024-02-16T01:11:04.585Z,68.33
2024-02-16T01:13:31.609Z,67.88
2024-02-16T01:15:58.536Z,66.77
2024-02-16T01:18:26.147Z,67.71
2024-02-16T01:20:53.454Z,66.88
2024-02-16T01:23:21.515Z,67.34
2024-02-16T01:25:49.482Z,67.10
2024-02-16T01:28:16.326Z,66.13
2024-02-16T01:30:43.408Z,65.33
2024-02-16T01:33:10.374Z,66.00
2024-02-16T01:35:37.517Z,65.75
2024-02-16T01:38:04.499Z,65.34
2024-02-16T01:40:31.359Z,65.42
2024-02-16T01:42:58.822Z,65.73
2024-02-16T01:45:25.697Z,64.83
2024-02-16T01:47:54.892Z,64.31
2024-02-16T01:50:23.252Z,65.67
2024-02-16T01:52:51.295Z,65.89
2024-02-16T01:55:18.492Z,65.59
2024-02-16T01:57:49.559Z,65.82
2024-02-16T02:00:19.092Z,65.93
2024-02-16T02:02:47.743Z,64.89
2024-02-16T02:05:16.899Z,65.39
2024-02-16T02:07:44.552Z,64.48
2024-02-16T02:10:14.088Z,65.11
2024-02-16T02:12:41.787Z,64.18
2024-02-16T02:15:10.042Z,63.94
2024-02-16T02:17:37.122Z,64.24
2024-02-16T02:20:05.544Z,63.84
2024-02-16T02:22:32.529Z,64.08
2024-02-16T02:24:59.388Z,64.86
2024-02-16T02:27:26.397Z,64.43
2024-02-16T02:29:53.334Z,64.71
2024-02-16T02:32:20.588Z,64.68
2024-02-16T02:34:47.709Z,66.33
2024-02-16T02:37:14.691Z,66.27
2024-02-16T02:39:41.759Z,65.21
2024-02-16T02:42:09.557Z,64.70
2024-02-16T02:44:36.476Z,64.51
2024-02-16T02:47:03.593Z,64.54
2024-02-16T02:49:30.767Z,64.05
2024-02-16T02:51:57.669Z,64.08
2024-02-16T02:54:24.565Z,63.45
2024-02-16T02:56:51.529Z,63.52
2024-02-16T02:59:18.496Z,63.33
2024-02-16T03:01:45.956Z,62.20
2024-02-16T03:04:13.075Z,62.77
2024-02-16T03:06:40.080Z,62.45
2024-02-16T03:09:08.032Z,62.91
2024-02-16T03:11:35.073Z,63.38
2024-02-16T03:14:02.006Z,64.35
2024-02-16T03:16:28.841Z,64.26
2024-02-16T03:18:56.614Z,62.75
2024-02-16T03:21:23.647Z,62.45
2024-02-16T03:23:50.576Z,63.18
2024-02-16T03:26:19.988Z,62.88
2024-02-16T03:28:50.754Z,62.37
2024-02-16T03:31:23.264Z,62.74
2024-02-16T03:33:52.653Z,61.63
2024-02-16T03:36:20.973Z,63.51
2024-02-16T03:38:52.495Z,62.26
2024-02-16T03:41:22.174Z,63.99
2024-02-16T03:43:49.113Z,62.20
2024-02-16T03:46:16.082Z,62.70
2024-02-16T03:48:43.272Z,62.82
2024-02-16T03:51:10.526Z,61.65
2024-02-16T03:53:37.497Z,61.25
2024-02-16T03:56:04.660Z,61.05
2024-02-16T03:58:32.599Z,60.96
2024-02-16T04:00:59.859Z,62.40
2024-02-16T04:03:26.872Z,61.92
2024-02-16T04:05:54.389Z,63.34
2024-02-16T04:08:21.501Z,62.06
2024-02-16T04:10:48.647Z,61.43
2024-02-16T04:13:15.744Z,61.53
2024-02-16T04:15:42.843Z,62.48
2024-02-16T04:18:10.714Z,62.09
2024-02-16T04:20:39.261Z,62.03
2024-02-16T04:23:06.197Z,62.14
2024-02-16T04:25:33.142Z,62.79
2024-02-16T04:28:00.355Z,61.46
2024-02-16T04:30:27.480Z,61.17
2024-02-16T04:32:54.678Z,61.33
2024-02-16T04:35:21.718Z,59.93
2024-02-16T04:37:48.576Z,60.56
2024-02-16T04:40:16.614Z,62.65
2024-02-16T04:42:43.492Z,61.30
2024-02-16T04:45:14.781Z,61.71
2024-02-16T04:47:41.887Z,60.94
2024-02-16T04:50:12.531Z,61.01
2024-02-16T04:52:42.290Z,62.09
2024-02-16T04:55:09.347Z,61.60
2024-02-16T04:57:37.666Z,61.43
2024-02-16T05:00:05.429Z,61.27
2024-02-16T05:02:32.363Z,61.32
2024-02-16T05:05:02.264Z,62.09
2024-02-16T05:07:32.801Z,61.31
2024-02-16T05:10:00.180Z,61.57
2024-02-16T05:12:27.933Z,62.01
2024-02-16T05:14:55.473Z,60.51
2024-02-16T05:17:23.870Z,60.07
2024-02-16T05:19:51.276Z,60.93
2024-02-16T05:22:23.009Z,61.82
2024-02-16T05:24:50.090Z,61.34
2024-02-16T05:27:17.088Z,60.71
2024-02-16T05:29:43.979Z,61.89
2024-02-16T05:32:11.846Z,60.25
2024-02-16T05:34:39.151Z,60.78
2024-02-16T05:37:10.494Z,62.21
2024-02-16T05:39:54.674Z,62.51
2024-02-16T05:42:24.503Z,62.15
2024-02-16T05:44:52.557Z,61.31
2024-02-16T05:47:20.552Z,61.57
2024-02-16T05:49:48.103Z,60.66
2024-02-16T05:52:24.789Z,60.99
2024-02-16T05:54:51.787Z,61.80
2024-02-16T05:57:19.630Z,62.64
2024-02-16T05:59:47.151Z,62.72
2024-02-16T06:02:15.567Z,61.67
2024-02-16T06:04:42.997Z,62.21
2024-02-16T06:07:10.161Z,61.49
2024-02-16T06:09:38.728Z,60.79
2024-02-16T06:12:08.507Z,61.28
2024-02-16T06:14:35.948Z,60.93
2024-02-16T06:17:02.961Z,60.32
2024-02-16T06:19:30.533Z,59.84
2024-02-16T06:21:57.688Z,61.17
2024-02-16T06:24:24.972Z,60.57
2024-02-16T06:26:57.553Z,60.72
2024-02-16T06:29:25.448Z,61.29
2024-02-16T06:31:53.349Z,61.26
2024-02-16T06:34:20.748Z,60.84
2024-02-16T06:36:47.960Z,60.57
2024-02-16T06:39:18.296Z,59.80
2024-02-16T06:41:49.164Z,60.69
2024-02-16T06:44:17.275Z,60.38
2024-02-16T06:46:52.498Z,60.72
2024-02-16T06:49:33.591Z,60.90
2024-02-16T06:55:21.634Z,59.88
2024-02-16T06:57:54.704Z,60.41
2024-02-16T07:00:48.417Z,59.95
2024-02-16T07:03:35.785Z,59.99
2024-02-16T07:06:04.341Z,59.17
2024-02-16T07:08:40.500Z,61.08
2024-02-16T07:11:12.758Z,58.49
2024-02-16T07:13:46.627Z,59.48
2024-02-16T07:16:23.371Z,59.97
2024-02-16T07:21:34.846Z,60.19
2024-02-16T07:24:16.651Z,58.97
2024-02-16T07:27:11.584Z,59.35
2024-02-16T07:29:42.542Z,58.95
2024-02-16T07:32:25.107Z,59.34
2024-02-16T07:35:10.282Z,58.66
2024-02-16T07:37:43.472Z,58.91
2024-02-16T07:40:10.660Z,57.46
2024-02-16T07:42:45.934Z,58.27
2024-02-16T07:45:13.300Z,57.90
2024-02-16T07:47:43.059Z,58.50
2024-02-16T07:50:11.290Z,57.54
2024-02-16T07:52:39.697Z,58.67
2024-02-16T07:55:09.972Z,57.75
2024-02-16T07:57:37.574Z,59.22
2024-02-16T08:00:08.434Z,57.38
2024-02-16T08:02:35.615Z,58.54
2024-02-16T08:05:02.644Z,57.19
2024-02-16T08:07:32.109Z,55.47
2024-02-16T08:09:59.244Z,56.28
2024-02-16T08:12:28.451Z,56.92
2024-02-16T08:14:57.260Z,55.35
2024-02-16T08:17:25.555Z,55.02
2024-02-16T08:19:56.581Z,55.24
2024-02-16T08:22:24.003Z,55.84
2024-02-16T08:24:51.380Z,54.49
2024-02-16T08:27:18.574Z,55.35
2024-02-16T08:29:46.073Z,56.45
2024-02-16T08:32:14.576Z,57.58
2024-02-16T08:34:41.708Z,57.10
2024-02-16T08:37:09.212Z,57.95
2024-02-16T08:39:39.293Z,56.57
2024-02-16T08:42:06.540Z,56.44
2024-02-16T08:44:33.580Z,57.87
2024-02-16T08:47:00.562Z,58.25
2024-02-16T08:49:28.311Z,56.66
2024-02-16T08:51:55.362Z,57.87
2024-02-16T08:54:22.333Z,56.56
2024-02-16T08:56:49.466Z,55.45
2024-02-16T08:59:16.418Z,56.20
2024-02-16T09:01:44.355Z,56.53
2024-02-16T09:04:11.701Z,56.66
2024-02-16T09:06:40.344Z,56.24
2024-02-16T09:09:13.302Z,55.83
2024-02-16T09:11:40.530Z,56.70
2024-02-16T09:14:07.477Z,55.30
2024-02-16T09:16:34.329Z,55.76
2024-02-16T09:19:01.504Z,56.58
2024-02-16T09:21:30.936Z,55.93
2024-02-16T09:24:02.804Z,55.46
2024-02-16T09:26:34.831Z,54.45
2024-02-16T09:29:02.242Z,54.40
2024-02-16T09:31:29.714Z,52.86
2024-02-16T09:33:56.749Z,53.51
2024-02-16T09:36:24.546Z,54.31
2024-02-16T09:38:52.094Z,52.34
2024-02-16T09:41:19.941Z,51.16
2024-02-16T09:43:46.968Z,50.92
2024-02-16T09:46:15.826Z,50.81
2024-02-16T09:48:49.637Z,52.17
2024-02-16T09:51:17.474Z,52.53
2024-02-16T09:53:44.490Z,54.07
2024-02-16T09:56:11.429Z,54.14
2024-02-16T09:58:38.364Z,54.81
2024-02-16T10:01:05.616Z,56.40
2024-02-16T10:03:36.330Z,56.76
2024-02-16T10:06:09.025Z,56.56
2024-02-16T10:08:48.325Z,55.84
2024-02-16T10:11:16.288Z,57.64
2024-02-16T10:13:43.220Z,58.84
2024-02-16T10:16:13.388Z,58.57
2024-02-16T10:18:40.577Z,58.34
2024-02-16T10:21:08.883Z,59.02
2024-02-16T10:23:43.550Z,58.09
2024-02-16T10:26:11.256Z,58.60
2024-02-16T10:28:39.065Z,58.86
2024-02-16T10:31:06.796Z,58.91
2024-02-16T10:33:35.192Z,58.31
2024-02-16T10:36:04.529Z,57.76
2024-02-16T10:38:32.275Z,56.88
2024-02-16T10:41:02.612Z,56.02
2024-02-16T10:43:31.350Z,57.08
2024-02-16T10:45:58.374Z,57.67
2024-02-16T10:48:25.488Z,56.57
2024-02-16T10:50:54.174Z,57.14
2024-02-16T10:53:26.683Z,57.30
2024-02-16T10:55:53.698Z,56.51
2024-02-16T10:58:21.514Z,56.75
2024-02-16T11:00:56.287Z,56.00
2024-02-16T11:03:25.802Z,54.73
2024-02-16T11:05:54.346Z,55.40
2024-02-16T11:08:29.576Z,52.41
2024-02-16T11:11:02.061Z,51.45
2024-02-16T11:13:33.135Z,53.38
2024-02-16T11:16:02.184Z,51.89
2024-02-16T11:18:33.428Z,52.81
2024-02-16T11:21:05.034Z,52.64
2024-02-16T11:23:32.970Z,51.09
2024-02-16T11:26:10.226Z,51.14
2024-02-16T11:28:37.189Z,52.71
2024-02-16T11:31:04.993Z,51.44
2024-02-16T11:33:32.772Z,52.13
2024-02-16T11:36:01.613Z,55.24
2024-02-16T11:38:28.786Z,54.80
2024-02-16T11:41:00.718Z,55.23
2024-02-16T11:43:27.855Z,53.93
2024-02-16T11:45:55.017Z,52.59
2024-02-16T11:48:29.383Z,52.81
2024-02-16T11:51:04.808Z,51.49
2024-02-16T11:53:32.453Z,51.38
2024-02-16T11:55:59.607Z,52.53
2024-02-16T11:58:27.225Z,54.54
2024-02-16T12:00:54.454Z,52.39
2024-02-16T12:03:26.910Z,50.99
2024-02-16T12:05:57.715Z,50.10
2024-02-16T12:08:25.658Z,52.13
2024-02-16T12:10:53.333Z,53.46
2024-02-16T12:13:21.714Z,54.28
2024-02-16T12:15:53.148Z,53.41
2024-02-16T12:18:27.195Z,52.34
2024-02-16T12:21:07.027Z,52.19
2024-02-16T12:23:34.893Z,52.31
2024-02-16T12:26:02.920Z,52.25
2024-02-16T12:28:34.083Z,54.00
2024-02-16T12:31:04.095Z,54.87
2024-02-16T12:33:31.751Z,53.85
2024-02-16T12:35:58.911Z,53.97
2024-02-16T12:38:25.879Z,55.45
2024-02-16T12:40:53.055Z,54.51
2024-02-16T12:43:21.369Z,56.12
2024-02-16T12:45:48.589Z,55.20
2024-02-16T12:48:16.306Z,57.77
2024-02-16T12:50:43.535Z,57.42
2024-02-16T12:53:13.646Z,56.76
2024-02-16T12:55:40.611Z,56.90
2024-02-16T12:58:07.680Z,55.16
2024-02-16T13:00:34.894Z,55.48
2024-02-16T13:03:01.831Z,55.78
2024-02-16T13:05:29.062Z,56.62
2024-02-16T13:07:56.127Z,57.19
2024-02-16T13:10:23.251Z,57.34
2024-02-16T13:12:50.238Z,58.31
2024-02-16T13:15:26.695Z,57.20
2024-02-16T13:17:56.228Z,56.75
2024-02-16T13:20:23.721Z,57.33
2024-02-16T13:22:50.843Z,57.14
2024-02-16T13:25:17.947Z,58.03
2024-02-16T13:27:44.947Z,59.02
2024-02-16T13:30:12.357Z,58.39
2024-02-16T13:32:41.549Z,57.90
2024-02-16T13:35:09.472Z,60.81
2024-02-16T13:37:36.603Z,60.40
2024-02-16T13:40:08.080Z,61.87
2024-02-16T13:42:35.283Z,61.30
2024-02-16T13:45:02.548Z,60.01
2024-02-16T13:47:29.533Z,59.33
2024-02-16T13:49:58.281Z,59.59
2024-02-16T13:52:25.889Z,60.82
2024-02-16T13:54:52.957Z,61.76
2024-02-16T13:57:20.552Z,59.18
2024-02-16T13:59:47.820Z,58.53
2024-02-16T14:02:14.907Z,60.07
2024-02-16T14:04:42.607Z,62.43
2024-02-16T14:07:11.278Z,64.50
2024-02-16T14:09:38.586Z,64.21
2024-02-16T14:12:05.919Z,65.29
2024-02-16T14:14:37.839Z,63.65
2024-02-16T14:17:06.273Z,64.02
2024-02-16T14:19:35.398Z,62.88
2024-02-16T14:22:02.804Z,63.87
2024-02-16T14:24:29.885Z,63.34
2024-02-16T14:26:56.927Z,63.66
2024-02-16T14:29:23.998Z,63.17
2024-02-16T14:31:51.007Z,62.05
2024-02-16T14:34:18.328Z,62.25
2024-02-16T14:36:45.547Z,64.77
2024-02-16T14:39:13.306Z,64.90
2024-02-16T14:41:40.561Z,66.31
2024-02-16T14:44:07.584Z,66.40
2024-02-16T14:46:35.523Z,66.51
2024-02-16T14:49:03.278Z,66.76
2024-02-16T14:51:30.671Z,64.93
2024-02-16T14:53:57.551Z,65.31
2024-02-16T14:56:24.996Z,64.60
2024-02-16T14:58:52.242Z,65.17
2024-02-16T15:01:19.418Z,66.49
2024-02-16T15:03:46.563Z,65.99
2024-02-16T15:06:13.667Z,66.84
2024-02-16T15:08:40.626Z,66.69
2024-02-16T15:11:07.545Z,66.01
2024-02-16T15:13:36.459Z,65.25
2024-02-16T15:16:03.379Z,65.02
2024-02-16T15:18:30.545Z,66.27
2024-02-16T15:20:57.661Z,66.56
2024-02-16T15:23:24.887Z,66.44
2024-02-16T15:25:51.726Z,66.39
2024-02-16T15:28:18.891Z,66.61
2024-02-16T15:30:46.008Z,66.00
2024-02-16T15:33:12.995Z,66.98
2024-02-16T15:35:39.910Z,67.98
2024-02-16T15:38:07.373Z,67.32
2024-02-16T15:40:34.321Z,66.64
2024-02-16T15:43:02.969Z,68.00
2024-02-16T15:45:30.248Z,68.81
2024-02-16T15:47:57.233Z,68.37
2024-02-16T15:50:27.157Z,67.59
2024-02-16T15:52:54.389Z,67.61
2024-02-16T15:55:21.443Z,67.35
2024-02-16T15:57:48.384Z,68.21
2024-02-16T16:00:16.126Z,68.76
2024-02-16T16:02:43.021Z,68.22
2024-02-16T16:05:10.355Z,69.22
2024-02-16T16:07:37.245Z,69.55
2024-02-16T16:10:04.429Z,69.35
2024-02-16T16:12:31.442Z,69.18
2024-02-16T16:14:58.380Z,69.26
2024-02-16T16:17:25.402Z,69.80
2024-02-16T16:19:52.386Z,70.11
2024-02-16T16:22:19.335Z,70.15
2024-02-16T16:24:46.298Z,70.13
2024-02-16T16:27:13.788Z,70.06
2024-02-16T16:29:40.735Z,69.07
2024-02-16T16:32:07.798Z,69.29
2024-02-16T16:34:34.787Z,68.99
2024-02-16T16:37:01.895Z,68.67
2024-02-16T16:39:28.798Z,69.51
2024-02-16T16:41:56.156Z,69.80
2024-02-16T16:44:23.937Z,69.41
2024-02-16T16:46:50.974Z,69.18
2024-02-16T16:49:17.946Z,69.36
2024-02-16T16:51:44.983Z,68.31
2024-02-16T16:54:11.989Z,68.73
2024-02-16T16:56:39.230Z,67.48
2024-02-16T16:59:06.251Z,67.77
2024-02-16T17:01:33.322Z,68.39
2024-02-16T17:04:01.281Z,67.51
2024-02-16T17:06:29.052Z,67.84
2024-02-16T17:08:57.841Z,67.84
2024-02-16T17:11:24.866Z,67.03
2024-02-16T17:13:51.881Z,67.38
2024-02-16T17:16:18.762Z,68.17
2024-02-16T17:18:45.776Z,68.92
2024-02-16T17:21:13.894Z,68.64
2024-02-16T17:23:41.607Z,67.68
2024-02-16T17:26:08.530Z,67.13
2024-02-16T17:28:37.945Z,68.71
2024-02-16T17:31:04.941Z,68.80
2024-02-16T17:33:32.414Z,69.62
2024-02-16T17:35:59.517Z,70.13
2024-02-16T17:38:26.460Z,69.11
2024-02-16T17:40:53.365Z,68.84
2024-02-16T17:43:20.212Z,68.94
2024-02-16T17:45:47.266Z,69.38
2024-02-16T17:48:14.409Z,71.20
2024-02-16T17:50:41.817Z,71.42
2024-02-16T17:53:08.771Z,70.83
2024-02-16T17:55:35.653Z,69.94
2024-02-16T17:58:03.847Z,69.88
2024-02-16T18:00:31.232Z,69.90
2024-02-16T18:02:58.243Z,69.37
2024-02-16T18:05:25.266Z,70.74
2024-02-16T18:07:52.864Z,70.01
2024-02-16T18:10:21.881Z,68.90
2024-02-16T18:12:50.121Z,70.92
2024-02-16T18:15:17.967Z,69.96
2024-02-16T18:17:44.920Z,70.74
2024-02-16T18:20:13.689Z,70.22
2024-02-16T18:22:41.575Z,70.05
2024-02-16T18:25:09.030Z,69.18
2024-02-16T18:27:36.079Z,68.78
2024-02-16T18:30:03.174Z,68.89
2024-02-16T18:32:30.496Z,69.15
2024-02-16T18:34:57.765Z,69.30
2024-02-16T18:37:24.695Z,69.84
2024-02-16T18:39:51.683Z,69.39
2024-02-16T18:42:18.688Z,69.18
2024-02-16T18:44:45.717Z,68.99
2024-02-16T18:47:12.626Z,69.42
2024-02-16T18:49:39.627Z,69.35
2024-02-16T18:52:06.688Z,67.84
2024-02-16T18:54:33.699Z,68.00
2024-02-16T18:57:00.721Z,67.27
2024-02-16T18:59:27.677Z,66.49
2024-02-16T19:02:02.157Z,66.70
2024-02-16T19:04:32.189Z,67.89
2024-02-16T19:06:59.329Z,69.00
2024-02-16T19:09:26.452Z,68.60
2024-02-16T19:11:53.349Z,68.17
2024-02-16T19:14:21.182Z,68.44
2024-02-16T19:16:48.042Z,68.89
2024-02-16T19:19:15.666Z,67.97
2024-02-16T19:21:44.070Z,69.20
2024-02-16T19:24:11.387Z,69.69
2024-02-16T19:26:38.412Z,69.15
2024-02-16T19:29:05.303Z,68.97
2024-02-16T19:31:34.438Z,69.15
2024-02-16T19:34:02.227Z,69.43
2024-02-16T19:36:29.766Z,69.06
2024-02-16T19:38:59.537Z,70.23
2024-02-16T19:41:26.431Z,70.14
2024-02-16T19:43:53.476Z,69.79
2024-02-16T19:46:20.659Z,70.43
2024-02-16T19:48:48.352Z,70.95
2024-02-16T19:51:15.523Z,69.84
2024-02-16T19:53:42.425Z,69.76
2024-02-16T19:56:09.372Z,69.57
2024-02-16T19:58:36.289Z,69.89
2024-02-16T20:01:03.726Z,69.98
2024-02-16T20:03:30.780Z,70.49
2024-02-16T20:05:57.998Z,70.57
2024-02-16T20:08:24.964Z,70.96
2024-02-16T20:10:52.861Z,70.57
2024-02-16T20:13:19.862Z,69.90
2024-02-16T20:15:46.881Z,69.31
2024-02-16T20:18:18.928Z,69.24
2024-02-16T20:20:47.183Z,69.87
2024-02-16T20:23:14.222Z,69.13
2024-02-16T20:25:41.088Z,70.19
2024-02-16T20:28:08.010Z,72.77
2024-02-16T20:30:35.217Z,74.37
2024-02-16T20:33:06.307Z,74.72
2024-02-16T20:35:33.248Z,75.37
2024-02-16T20:38:00.957Z,76.10
2024-02-16T20:40:28.269Z,76.51
2024-02-16T20:42:55.190Z,79.07
2024-02-16T20:45:22.149Z,78.77
2024-02-16T20:47:49.096Z,78.67
2024-02-16T20:50:17.662Z,78.80
2024-02-16T20:52:45.457Z,77.29
2024-02-16T20:55:12.491Z,77.96
2024-02-16T20:57:39.513Z,78.88
2024-02-16T21:00:12.800Z,77.83
2024-02-16T21:02:40.018Z,77.01
2024-02-16T21:05:07.472Z,76.11
2024-02-16T21:07:34.412Z,76.53
2024-02-16T21:10:01.269Z,76.87
2024-02-16T21:12:29.816Z,78.43
2024-02-16T21:14:56.890Z,79.24
2024-02-16T21:17:23.765Z,78.54
2024-02-16T21:19:50.724Z,78.93
2024-02-16T21:22:17.643Z,79.56
2024-02-16T21:24:44.614Z,80.58
2024-02-16T21:27:11.541Z,80.05
2024-02-16T21:29:41.321Z,78.81
2024-02-16T21:32:08.263Z,81.09
2024-02-16T21:34:35.306Z,80.60
2024-02-16T21:37:05.077Z,79.18
2024-02-16T21:39:32.270Z,82.78
2024-02-16T21:41:59.275Z,80.92
2024-02-16T21:44:26.763Z,81.35
2024-02-16T21:46:53.677Z,82.30
2024-02-16T21:49:22.507Z,82.00
2024-02-16T21:51:49.652Z,81.78
2024-02-16T21:54:16.679Z,82.23
2024-02-16T21:56:43.601Z,81.88
2024-02-16T21:59:10.800Z,82.87
2024-02-16T22:01:37.990Z,82.35
2024-02-16T22:04:05.121Z,81.80
2024-02-16T22:06:32.237Z,82.36
2024-02-16T22:08:59.460Z,81.62
2024-02-16T22:11:27.737Z,82.88
2024-02-16T22:13:55.047Z,82.60
2024-02-16T22:16:22.195Z,83.73
2024-02-16T22:18:50.638Z,82.33
2024-02-16T22:21:20.140Z,83.17
2024-02-16T22:23:52.384Z,83.26
2024-02-16T22:26:19.225Z,83.40
2024-02-16T22:28:46.063Z,81.92
2024-02-16T22:31:12.959Z,82.78
2024-02-16T22:33:39.921Z,84.23
2024-02-16T22:36:07.460Z,83.38
2024-02-16T22:38:34.620Z,84.05
2024-02-16T22:41:01.893Z,83.18
2024-02-16T22:43:29.297Z,82.84
2024-02-16T22:45:57.062Z,84.48
2024-02-16T22:48:24.437Z,82.89
2024-02-16T22:50:51.577Z,84.07
2024-02-16T22:53:18.621Z,83.18
2024-02-16T22:55:47.549Z,84.77
2024-02-16T22:58:14.623Z,84.77
2024-02-16T23:00:42.534Z,85.45
2024-02-16T23:03:11.914Z,85.17
2024-02-16T23:05:39.842Z,86.37
2024-02-16T23:08:08.364Z,85.19
2024-02-16T23:10:36.873Z,84.67
2024-02-16T23:13:04.244Z,84.26
2024-02-16T23:15:34.661Z,84.59
2024-02-16T23:18:03.381Z,84.29
2024-02-16T23:20:31.610Z,84.16
2024-02-16T23:23:16.237Z,83.95
2024-02-16T23:25:44.559Z,84.98
2024-02-16T23:28:16.434Z,83.49
2024-02-16T23:30:44.431Z,84.30
2024-02-16T23:33:12.549Z,83.63
2024-02-16T23:35:40.216Z,83.45
2024-02-16T23:38:07.168Z,84.51
2024-02-16T23:40:34.058Z,82.66
2024-02-16T23:43:00.943Z,84.13
2024-02-16T23:45:33.916Z,82.48
2024-02-16T23:48:01.187Z,82.08
2024-02-16T23:50:31.028Z,83.61
2024-02-16T23:52:58.809Z,83.08
2024-02-16T23:55:25.984Z,84.09
2024-02-16T23:57:55.893Z,83.51
